createdAt,value
2023-01-18T00:02:57.915Z,70.53
2023-01-18T00:06:02.023Z,70.86
2023-01-18T00:09:05.683Z,69.42
2023-01-18T00:12:09.090Z,69.41
2023-01-18T00:15:11.976Z,69.73
2023-01-18T00:18:14.003Z,69.24
2023-01-18T00:21:16.288Z,69.59
2023-01-18T00:24:18.265Z,69.14
2023-01-18T00:27:21.773Z,69.93
2023-01-18T00:30:27.754Z,69.58
2023-01-18T00:33:30.903Z,69.20
2023-01-18T00:36:34.442Z,70.40
2023-01-18T00:39:38.269Z,70.68
2023-01-18T00:43:01.008Z,70.02
2023-01-18T00:46:06.183Z,69.44
2023-01-18T00:49:08.579Z,69.82
2023-01-18T00:52:10.744Z,69.64
2023-01-18T00:55:14.993Z,70.24
2023-01-18T00:58:17.152Z,69.61
2023-01-18T01:01:19.501Z,68.45
2023-01-18T01:04:40.524Z,69.12
2023-01-18T01:07:42.622Z,68.93
2023-01-18T01:10:46.566Z,69.14
2023-01-18T01:14:07.765Z,69.78
2023-01-18T01:17:28.039Z,69.92
2023-01-18T01:20:48.658Z,69.88
2023-01-18T01:24:10.763Z,70.22
2023-01-18T01:27:14.037Z,70.06
2023-01-18T01:30:16.987Z,70.10
2023-01-18T01:33:20.049Z,69.63
2023-01-18T01:36:28.538Z,70.27
2023-01-18T01:39:32.935Z,70.42
2023-01-18T01:42:34.959Z,69.96
2023-01-18T01:45:38.391Z,70.34
2023-01-18T01:48:41.723Z,69.59
2023-01-18T01:51:49.111Z,69.99
2023-01-18T01:54:58.400Z,70.18
2023-01-18T01:58:26.446Z,70.82
2023-01-18T02:01:30.080Z,70.60
2023-01-18T02:04:33.473Z,70.90
2023-01-18T02:07:35.744Z,71.64
2023-01-18T02:10:38.110Z,71.43
2023-01-18T02:13:40.410Z,71.90
2023-01-18T02:16:48.331Z,72.70
2023-01-18T02:20:19.819Z,72.03
2023-01-18T02:23:28.490Z,71.99
2023-01-18T02:27:06.165Z,71.90
2023-01-18T02:30:32.677Z,72.44
2023-01-18T02:33:47.237Z,71.13
2023-01-18T02:37:02.126Z,71.71
2023-01-18T02:40:22.219Z,71.75
2023-01-18T02:43:44.073Z,71.01
2023-01-18T02:46:46.566Z,70.47
2023-01-18T02:49:48.640Z,70.53
2023-01-18T02:52:53.804Z,71.35
2023-01-18T02:56:06.903Z,70.63
2023-01-18T02:59:20.897Z,70.99
2023-01-18T03:02:26.518Z,71.30
2023-01-18T03:05:31.205Z,71.22
2023-01-18T03:08:41.970Z,71.33
2023-01-18T03:12:12.991Z,70.60
2023-01-18T03:15:27.799Z,71.72
2023-01-18T03:18:30.381Z,72.21
2023-01-18T03:21:49.426Z,71.81
2023-01-18T03:24:51.651Z,71.84
2023-01-18T03:28:14.641Z,71.72
2023-01-18T03:31:56.706Z,72.64
2023-01-18T03:35:16.482Z,72.20
2023-01-18T03:38:20.825Z,71.98
2023-01-18T03:41:27.121Z,71.75
2023-01-18T03:44:39.988Z,70.99
2023-01-18T03:47:42.564Z,71.24
2023-01-18T03:51:10.796Z,70.93
2023-01-18T03:54:29.181Z,70.93
2023-01-18T03:57:40.684Z,71.43
2023-01-18T04:00:43.485Z,71.92
2023-01-18T04:03:45.547Z,72.00
2023-01-18T04:06:47.493Z,71.98
2023-01-18T04:09:49.740Z,72.27
2023-01-18T04:12:51.778Z,72.50
2023-01-18T04:15:53.893Z,72.13
2023-01-18T04:18:55.995Z,72.64
2023-01-18T04:21:58.126Z,72.32
2023-01-18T04:25:00.341Z,72.80
2023-01-18T04:28:02.663Z,71.65
2023-01-18T04:31:05.868Z,72.11
2023-01-18T04:34:08.804Z,72.34
2023-01-18T04:37:12.080Z,70.51
2023-01-18T04:40:14.270Z,71.42
2023-01-18T04:43:16.644Z,70.79
2023-01-18T04:46:18.909Z,71.79
2023-01-18T04:49:22.280Z,71.16
2023-01-18T04:52:25.680Z,71.35
2023-01-18T04:55:28.064Z,71.19
2023-01-18T04:58:30.070Z,72.72
2023-01-18T05:01:32.591Z,78.06
2023-01-18T05:04:34.998Z,78.05
2023-01-18T05:07:37.023Z,78.14
2023-01-18T05:10:39.318Z,77.95
2023-01-18T05:13:41.801Z,78.39
2023-01-18T05:16:43.867Z,78.03
2023-01-18T05:19:46.991Z,78.02
2023-01-18T05:22:49.252Z,78.28
2023-01-18T05:25:55.382Z,78.69
2023-01-18T05:28:58.271Z,80.47
2023-01-18T05:32:01.298Z,80.17
2023-01-18T05:35:05.079Z,80.18
2023-01-18T05:38:07.256Z,80.69
2023-01-18T05:41:09.309Z,80.92
2023-01-18T05:44:11.419Z,81.72
2023-01-18T05:47:13.542Z,81.03
2023-01-18T05:50:16.202Z,80.98
2023-01-18T05:53:20.887Z,82.60
2023-01-18T05:56:22.881Z,81.20
2023-01-18T05:59:25.092Z,80.92
2023-01-18T06:02:27.325Z,78.57
2023-01-18T06:05:29.511Z,79.87
2023-01-18T06:08:32.067Z,81.79
2023-01-18T06:11:34.111Z,82.01
2023-01-18T06:14:36.219Z,83.58
2023-01-18T06:17:38.308Z,84.17
2023-01-18T06:20:40.818Z,83.59
2023-01-18T06:23:42.969Z,83.11
2023-01-18T06:26:45.089Z,82.28
2023-01-18T06:29:47.331Z,82.72
2023-01-18T06:32:52.547Z,83.94
2023-01-18T06:35:56.615Z,86.01
2023-01-18T06:38:59.016Z,84.86
2023-01-18T06:42:01.442Z,84.06
2023-01-18T06:45:04.277Z,82.02
2023-01-18T06:48:06.540Z,81.60
2023-01-18T06:51:08.654Z,78.75
2023-01-18T06:54:10.840Z,77.96
2023-01-18T06:57:13.170Z,75.92
2023-01-18T07:00:17.018Z,76.73
2023-01-18T07:03:19.202Z,78.01
2023-01-18T07:06:21.527Z,77.30
2023-01-18T07:09:24.220Z,77.32
2023-01-18T07:12:26.842Z,75.95
2023-01-18T07:15:30.197Z,74.61
2023-01-18T07:18:32.583Z,73.54
2023-01-18T07:21:34.699Z,72.84
2023-01-18T07:24:36.856Z,72.70
2023-01-18T07:27:40.352Z,72.23
2023-01-18T07:30:42.621Z,70.57
2023-01-18T07:33:45.160Z,71.66
2023-01-18T07:36:47.949Z,71.11
2023-01-18T07:39:51.901Z,70.65
2023-01-18T07:42:58.305Z,70.46
2023-01-18T07:46:02.068Z,70.25
2023-01-18T07:49:05.932Z,70.35
2023-01-18T07:52:08.398Z,69.57
2023-01-18T07:55:12.842Z,67.79
2023-01-18T07:58:14.916Z,66.11
2023-01-18T08:01:20.188Z,64.88
2023-01-18T08:04:22.487Z,64.59
2023-01-18T08:07:24.603Z,63.80
2023-01-18T08:10:29.942Z,63.55
2023-01-18T08:13:35.244Z,63.00
2023-01-18T08:16:37.399Z,63.93
2023-01-18T08:19:39.458Z,64.47
2023-01-18T08:22:41.807Z,64.72
2023-01-18T08:25:45.070Z,63.75
2023-01-18T08:28:47.144Z,64.63
2023-01-18T08:31:52.744Z,63.60
2023-01-18T08:34:54.760Z,63.48
2023-01-18T08:37:58.152Z,63.47
2023-01-18T08:41:04.863Z,63.83
2023-01-18T08:44:07.001Z,64.64
2023-01-18T08:47:09.217Z,64.49
2023-01-18T08:50:12.788Z,65.00
2023-01-18T08:53:14.857Z,63.49
2023-01-18T08:56:18.147Z,63.77
2023-01-18T08:59:21.154Z,63.49
2023-01-18T09:02:25.154Z,63.59
2023-01-18T09:05:27.397Z,62.90
2023-01-18T09:08:29.707Z,64.10
2023-01-18T09:11:31.991Z,62.94
2023-01-18T09:14:34.229Z,61.75
2023-01-18T09:17:36.326Z,62.41
2023-01-18T09:20:38.378Z,62.08
2023-01-18T09:23:41.150Z,62.61
2023-01-18T09:26:45.215Z,62.97
2023-01-18T09:29:52.401Z,63.47
2023-01-18T09:32:57.965Z,63.33
2023-01-18T09:36:04.515Z,64.13
2023-01-18T09:39:07.457Z,64.88
2023-01-18T09:42:19.141Z,65.06
2023-01-18T09:45:35.169Z,66.72
2023-01-18T09:48:41.147Z,67.35
2023-01-18T09:52:12.265Z,68.45
2023-01-18T09:55:22.748Z,70.17
2023-01-18T09:58:42.883Z,69.70
2023-01-18T10:01:46.183Z,69.46
2023-01-18T10:04:56.599Z,68.20
2023-01-18T10:08:16.048Z,68.38
2023-01-18T10:11:34.115Z,68.48
2023-01-18T10:14:57.131Z,69.21
2023-01-18T10:18:01.096Z,66.27
2023-01-18T10:21:07.207Z,64.60
2023-01-18T10:24:20.260Z,62.21
2023-01-18T10:27:40.989Z,62.21
2023-01-18T10:31:04.736Z,62.34
2023-01-18T10:34:22.666Z,64.28
2023-01-18T10:37:57.623Z,65.35
2023-01-18T10:41:02.190Z,65.48
2023-01-18T10:44:04.836Z,66.22
2023-01-18T10:47:08.314Z,66.56
2023-01-18T10:50:17.096Z,66.74
2023-01-18T10:53:35.518Z,65.83
2023-01-18T10:56:40.122Z,65.47
2023-01-18T10:59:43.185Z,65.14
2023-01-18T11:02:46.072Z,64.88
2023-01-18T11:05:48.648Z,64.41
2023-01-18T11:08:51.565Z,63.72
2023-01-18T11:12:30.924Z,63.80
2023-01-18T11:15:33.087Z,67.63
2023-01-18T11:18:35.192Z,70.18
2023-01-18T11:21:42.865Z,74.91
2023-01-18T11:24:45.043Z,62.30
2023-01-18T11:27:50.015Z,59.94
2023-01-18T11:30:54.771Z,57.34
2023-01-18T11:34:04.111Z,56.12
2023-01-18T11:37:31.197Z,55.54
2023-01-18T11:40:35.076Z,54.88
2023-01-18T11:43:39.470Z,55.17
2023-01-18T11:46:49.988Z,56.21
2023-01-18T11:50:13.517Z,56.65
2023-01-18T11:53:25.689Z,55.39
2023-01-18T11:56:40.985Z,56.55
2023-01-18T11:59:48.133Z,56.63
2023-01-18T12:02:59.231Z,54.98
2023-01-18T12:06:07.073Z,54.92
2023-01-18T12:09:24.278Z,56.47
2023-01-18T12:12:53.761Z,55.97
2023-01-18T12:15:55.746Z,56.34
2023-01-18T12:19:15.962Z,56.86
2023-01-18T12:22:36.494Z,55.43
2023-01-18T12:26:20.332Z,54.66
2023-01-18T12:29:43.788Z,57.27
2023-01-18T12:32:58.084Z,57.83
2023-01-18T12:36:32.735Z,56.71
2023-01-18T12:39:58.422Z,56.76
2023-01-18T12:43:20.421Z,57.92
2023-01-18T12:46:47.112Z,56.80
2023-01-18T12:49:56.270Z,57.44
2023-01-18T12:53:04.783Z,57.10
2023-01-18T12:56:13.514Z,58.52
2023-01-18T12:59:42.961Z,57.16
2023-01-18T13:02:48.164Z,59.07
2023-01-18T13:06:02.688Z,58.94
2023-01-18T13:09:13.039Z,60.75
2023-01-18T13:12:17.652Z,59.98
2023-01-18T13:15:55.080Z,58.47
2023-01-18T13:19:06.671Z,59.01
2023-01-18T13:22:40.746Z,58.51
2023-01-18T13:25:46.235Z,58.68
2023-01-18T13:29:14.109Z,60.51
2023-01-18T13:32:32.152Z,60.05
2023-01-18T13:35:35.969Z,59.81
2023-01-18T13:38:58.800Z,59.34
2023-01-18T13:42:04.209Z,58.95
2023-01-18T13:45:15.086Z,59.41
2023-01-18T13:48:35.706Z,60.30
2023-01-18T13:51:40.673Z,60.20
2023-01-18T13:54:46.831Z,59.76
2023-01-18T13:57:55.588Z,59.81
2023-01-18T14:01:03.464Z,61.43
2023-01-18T14:04:19.999Z,61.92
2023-01-18T14:07:23.390Z,60.86
2023-01-18T14:10:30.776Z,62.06
2023-01-18T14:13:45.255Z,66.20
2023-01-18T14:17:22.722Z,69.22
2023-01-18T14:20:48.916Z,72.66
2023-01-18T14:24:09.991Z,74.02
2023-01-18T14:27:20.142Z,76.47
2023-01-18T14:30:30.724Z,78.11
2023-01-18T14:33:42.811Z,79.24
2023-01-18T14:36:44.924Z,72.34
2023-01-18T14:39:48.324Z,69.93
2023-01-18T14:43:00.107Z,70.26
2023-01-18T14:46:25.288Z,69.67
2023-01-18T14:49:39.257Z,69.44
2023-01-18T14:52:44.220Z,69.49
2023-01-18T14:56:02.701Z,70.41
2023-01-18T14:59:28.746Z,71.22
2023-01-18T15:02:39.629Z,71.84
2023-01-18T15:05:42.810Z,73.30
2023-01-18T15:08:47.222Z,73.53
2023-01-18T15:11:52.336Z,73.94
2023-01-18T15:15:03.867Z,75.56
2023-01-18T15:18:11.146Z,77.85
2023-01-18T15:21:19.026Z,79.00
2023-01-18T15:24:25.515Z,79.08
2023-01-18T15:27:31.940Z,79.65
2023-01-18T15:30:34.147Z,81.06
2023-01-18T15:33:37.700Z,81.19
2023-01-18T15:36:45.047Z,81.63
2023-01-18T15:39:51.020Z,81.88
2023-01-18T15:43:02.594Z,80.63
2023-01-18T15:46:09.177Z,80.34
2023-01-18T15:49:16.868Z,80.33
2023-01-18T15:52:43.871Z,79.35
2023-01-18T15:55:55.841Z,79.94
2023-01-18T15:59:03.052Z,79.89
2023-01-18T16:02:11.775Z,79.61
2023-01-18T16:05:18.342Z,79.89
2023-01-18T16:08:22.984Z,80.51
2023-01-18T16:11:34.281Z,79.22
2023-01-18T16:14:38.507Z,78.20
2023-01-18T16:17:43.589Z,75.71
2023-01-18T16:20:45.802Z,74.41
2023-01-18T16:23:49.947Z,73.07
2023-01-18T16:26:52.668Z,72.29
2023-01-18T16:30:15.723Z,72.57
2023-01-18T16:33:20.969Z,75.60
2023-01-18T16:36:24.243Z,76.81
2023-01-18T16:39:27.739Z,77.12
2023-01-18T16:42:38.069Z,77.25
2023-01-18T16:45:41.950Z,77.70
2023-01-18T16:48:49.787Z,76.80
2023-01-18T16:51:51.827Z,75.51
2023-01-18T16:55:01.170Z,76.58
2023-01-18T16:58:06.750Z,76.74
2023-01-18T17:01:14.734Z,75.63
2023-01-18T17:04:18.577Z,76.01
2023-01-18T17:07:22.064Z,76.66
2023-01-18T17:10:35.166Z,75.87
2023-01-18T17:13:37.276Z,76.61
2023-01-18T17:16:43.943Z,76.06
2023-01-18T17:19:46.185Z,77.12
2023-01-18T17:22:48.895Z,78.05
2023-01-18T17:25:50.956Z,77.69
2023-01-18T17:28:53.164Z,78.55
2023-01-18T17:31:55.291Z,78.22
2023-01-18T17:34:57.564Z,77.92
2023-01-18T17:38:05.712Z,78.19
2023-01-18T17:41:27.259Z,78.36
2023-01-18T17:44:36.711Z,79.77
2023-01-18T17:47:42.735Z,79.75
2023-01-18T17:50:44.863Z,80.91
2023-01-18T17:53:47.940Z,84.28
2023-01-18T17:56:52.401Z,86.36
2023-01-18T17:59:56.051Z,83.47
2023-01-18T18:02:59.393Z,73.64
2023-01-18T18:06:03.874Z,66.94
2023-01-18T18:09:06.941Z,66.10
2023-01-18T18:12:10.884Z,68.94
2023-01-18T18:15:14.892Z,75.91
2023-01-18T18:18:24.195Z,81.44
2023-01-18T18:21:27.515Z,83.97
2023-01-18T18:24:30.686Z,85.54
2023-01-18T18:27:44.731Z,86.04
2023-01-18T18:30:49.100Z,87.19
2023-01-18T18:33:51.409Z,91.28
2023-01-18T18:36:53.843Z,93.56
2023-01-18T18:39:55.985Z,94.60
2023-01-18T18:43:02.429Z,95.95
2023-01-18T18:46:05.190Z,99.68
2023-01-18T18:49:07.387Z,98.39
2023-01-18T18:52:09.497Z,99.88
2023-01-18T18:55:12.159Z,99.37
2023-01-18T18:58:16.026Z,100.00
2023-01-18T19:01:23.845Z,99.63
2023-01-18T19:04:26.839Z,100.00
2023-01-18T19:07:29.207Z,98.84
2023-01-18T19:10:31.400Z,98.65
2023-01-18T19:13:33.500Z,99.83
2023-01-18T19:16:37.537Z,99.13
2023-01-18T19:19:39.660Z,99.46
2023-01-18T19:22:44.094Z,99.28
2023-01-18T19:25:48.937Z,98.91
2023-01-18T19:28:53.518Z,98.30
2023-01-18T19:31:55.921Z,98.43
2023-01-18T19:34:58.121Z,97.69
2023-01-18T19:38:01.043Z,98.01
2023-01-18T19:41:03.279Z,98.64
2023-01-18T19:44:05.705Z,100.00
2023-01-18T19:47:07.692Z,99.44
2023-01-18T19:50:10.410Z,98.35
2023-01-18T19:53:14.106Z,98.21
2023-01-18T19:56:16.298Z,97.05
2023-01-18T19:59:18.725Z,97.07
2023-01-18T20:02:22.522Z,95.40
2023-01-18T20:05:25.019Z,94.08
2023-01-18T20:08:27.077Z,93.53
2023-01-18T20:11:29.295Z,92.15
2023-01-18T20:14:40.932Z,92.10
2023-01-18T20:17:43.942Z,91.67
2023-01-18T20:20:46.070Z,89.65
2023-01-18T20:23:48.641Z,70.26
2023-01-18T20:26:50.815Z,61.11
2023-01-18T20:29:53.197Z,56.60
2023-01-18T20:32:57.860Z,55.12
2023-01-18T20:36:01.836Z,53.43
2023-01-18T20:39:05.543Z,53.07
2023-01-18T20:42:08.814Z,51.96
2023-01-18T20:45:11.069Z,52.38
2023-01-18T20:48:14.130Z,52.07
2023-01-18T20:51:18.042Z,51.19
2023-01-18T20:54:22.964Z,51.85
2023-01-18T20:57:27.391Z,52.00
2023-01-18T21:00:29.682Z,51.63
2023-01-18T21:03:31.748Z,51.42
2023-01-18T21:06:34.247Z,50.96
2023-01-18T21:09:36.520Z,51.11
2023-01-18T21:12:38.622Z,51.08
2023-01-18T21:15:42.096Z,53.20
2023-01-18T21:18:44.159Z,57.49
2023-01-18T21:21:46.411Z,62.05
2023-01-18T21:24:48.919Z,65.10
2023-01-18T21:27:52.161Z,67.30
2023-01-18T21:30:55.988Z,69.49
2023-01-18T21:33:58.709Z,70.86
2023-01-18T21:37:00.808Z,71.68
2023-01-18T21:40:04.053Z,73.63
2023-01-18T21:43:25.066Z,72.41
2023-01-18T21:46:27.137Z,72.74
2023-01-18T21:50:15.448Z,73.63
2023-01-18T21:53:33.156Z,73.51
2023-01-18T21:56:37.481Z,73.71
2023-01-18T21:59:39.514Z,73.44
2023-01-18T22:02:42.957Z,74.34
2023-01-18T22:05:45.120Z,73.64
2023-01-18T22:08:47.312Z,74.79
2023-01-18T22:11:50.224Z,74.61
2023-01-18T22:14:52.937Z,75.46
2023-01-18T22:17:55.145Z,75.22
2023-01-18T22:20:57.186Z,75.07
2023-01-18T22:24:00.678Z,75.34
2023-01-18T22:27:02.731Z,75.88
2023-01-18T22:30:05.816Z,75.63
2023-01-18T22:33:07.929Z,75.33
2023-01-18T22:36:10.469Z,74.85
2023-01-18T22:39:13.375Z,75.23
2023-01-18T22:42:15.420Z,75.73
2023-01-18T22:45:18.868Z,74.40
2023-01-18T22:48:21.101Z,75.36
2023-01-18T22:51:24.128Z,75.37
2023-01-18T22:54:26.413Z,76.04
2023-01-18T22:57:28.484Z,75.88
2023-01-18T23:00:30.526Z,74.77
2023-01-18T23:03:33.807Z,74.94
2023-01-18T23:06:50.818Z,75.13
2023-01-18T23:09:52.936Z,75.50
2023-01-18T23:12:56.153Z,75.98
2023-01-18T23:16:16.711Z,75.01
2023-01-18T23:19:18.820Z,75.56
2023-01-18T23:22:21.106Z,75.08
2023-01-18T23:25:23.116Z,75.84
2023-01-18T23:28:41.246Z,76.54
2023-01-18T23:31:44.647Z,76.03
2023-01-18T23:34:47.967Z,77.05
2023-01-18T23:37:50.305Z,77.17
2023-01-18T23:41:15.236Z,77.45
2023-01-18T23:44:35.979Z,77.75
2023-01-18T23:47:56.845Z,77.20
2023-01-18T23:51:19.211Z,76.88
2023-01-18T23:54:22.543Z,77.11
2023-01-18T23:57:25.129Z,76.95
